Time;durP1;ratioP1;P1;durP2;ratioP2;P2;SDS_P1;SDS_P2;PMS_P1;PMS_P2;Temp;Humidity;BMP_temperature;BMP_pressure;BME280_temperature;BME280_humidity;BME280_pressure;Samples;Min_cycle;Max_cycle;Signal;HPM_P1;HPM_P2
2022/05/05 00:01:43;;;;;;;10.93;7.88;;;10.00;95.80;;;;;;5048777;28;20051;-68
2022/05/05 00:04:10;;;;;;;11.23;7.35;;;9.90;95.70;;;;;;5048323;28;20039;-68
2022/05/05 00:06:36;;;;;;;9.98;7.35;;;9.90;95.80;;;;;;5053312;28;20025;-67
2022/05/05 00:09:03;;;;;;;10.80;7.05;;;9.90;95.90;;;;;;5059086;28;20064;-68
2022/05/05 00:14:24;;;;;;;9.20;6.65;;;9.90;96.20;;;;;;5053005;28;20336;-68
2022/05/05 00:17:04;;;;;;;11.57;7.68;;;9.90;95.90;;;;;;5049881;28;20108;-68
2022/05/05 00:19:38;;;;;;;8.40;7.00;;;9.90;95.70;;;;;;5056195;28;20432;-67
2022/05/05 00:22:06;;;;;;;10.15;7.15;;;9.80;95.10;;;;;;5060199;28;20036;-68
2022/05/05 00:24:33;;;;;;;11.90;8.23;;;9.80;95.00;;;;;;5059376;28;20025;-67
2022/05/05 00:27:00;;;;;;;9.20;7.20;;;9.80;95.40;;;;;;5033034;28;20032;-67
2022/05/05 00:29:26;;;;;;;9.98;7.97;;;9.80;95.10;;;;;;5053921;28;20029;-68
2022/05/05 00:31:52;;;;;;;10.02;7.05;;;9.80;95.00;;;;;;5052226;28;20379;-68
2022/05/05 00:34:18;;;;;;;9.15;6.75;;;9.80;94.90;;;;;;5052417;28;20043;-67
2022/05/05 00:36:47;;;;;;;10.63;7.25;;;9.70;94.70;;;;;;5051960;28;20029;-68
2022/05/05 00:39:13;;;;;;;9.38;6.40;;;9.70;94.70;;;;;;5054809;28;20029;-68
2022/05/05 00:41:43;;;;;;;13.95;6.97;;;9.70;94.90;;;;;;5057425;28;20021;-67
2022/05/05 00:44:10;;;;;;;9.50;6.95;;;9.70;94.90;;;;;;5055870;28;20021;-67
2022/05/05 00:46:36;;;;;;;10.68;7.40;;;9.70;95.00;;;;;;5062379;28;20020;-67
2022/05/05 00:49:05;;;;;;;10.98;6.75;;;9.70;95.00;;;;;;5049972;28;20078;-66
2022/05/05 00:51:32;;;;;;;10.80;7.40;;;9.70;95.00;;;;;;5052254;28;20028;-67
2022/05/05 00:53:57;;;;;;;10.00;6.95;;;9.70;95.10;;;;;;5050784;28;20079;-67
2022/05/05 00:56:24;;;;;;;8.07;6.30;;;9.70;95.10;;;;;;5054339;28;20021;-66
2022/05/05 00:58:53;;;;;;;8.70;6.90;;;9.70;94.80;;;;;;5048396;28;20136;-68
2022/05/05 01:01:21;;;;;;;10.75;7.22;;;9.70;94.80;;;;;;5061060;28;20090;-69
2022/05/05 01:03:50;;;;;;;11.02;6.93;;;9.60;94.30;;;;;;5050555;28;20044;-68
2022/05/05 01:06:17;;;;;;;8.90;7.68;;;9.60;94.50;;;;;;5053483;28;20326;-68
2022/05/05 01:08:46;;;;;;;9.45;7.15;;;9.60;94.60;;;;;;5047747;28;20372;-71
2022/05/05 01:11:12;;;;;;;9.73;7.20;;;9.60;94.20;;;;;;5054511;28;20068;-68
2022/05/05 01:13:42;;;;;;;8.88;6.78;;;9.50;94.20;;;;;;5052857;28;20078;-67
2022/05/05 01:16:09;;;;;;;9.82;7.47;;;9.60;94.30;;;;;;5048826;28;20047;-67
2022/05/05 01:18:35;;;;;;;9.23;7.13;;;9.60;94.50;;;;;;5051401;28;20032;-68
2022/05/05 01:21:02;;;;;;;9.27;7.03;;;9.60;94.60;;;;;;5053308;28;20029;-68
2022/05/05 01:23:29;;;;;;;8.05;6.60;;;9.60;94.50;;;;;;5036708;28;20112;-67
2022/05/05 01:28:45;;;;;;;11.77;6.68;;;9.60;94.50;;;;;;5051551;28;20039;-69
2022/05/05 01:31:14;;;;;;;11.90;7.35;;;9.60;94.20;;;;;;5050421;28;20291;-67
2022/05/05 01:33:43;;;;;;;9.02;6.80;;;9.60;94.10;;;;;;5035499;28;20086;-67
2022/05/05 01:36:09;;;;;;;9.90;7.65;;;9.60;94.00;;;;;;5035021;28;20028;-68
2022/05/05 01:38:40;;;;;;;9.63;6.75;;;9.50;93.90;;;;;;5050651;28;20465;-68
2022/05/05 01:41:11;;;;;;;9.63;7.40;;;9.60;93.80;;;;;;5050921;28;20319;-68
2022/05/05 01:43:42;;;;;;;10.10;7.22;;;9.50;93.90;;;;;;5048769;28;20334;-68
2022/05/05 01:46:08;;;;;;;9.88;7.00;;;9.40;93.80;;;;;;5054453;28;20028;-68
2022/05/05 01:48:34;;;;;;;11.48;7.55;;;9.30;93.60;;;;;;5051359;28;20025;-68
2022/05/05 01:51:01;;;;;;;10.75;8.25;;;9.30;93.50;;;;;;5059315;28;20029;-68
2022/05/05 01:53:27;;;;;;;10.75;7.97;;;9.30;93.10;;;;;;5065333;28;20032;-68
2022/05/05 01:55:53;;;;;;;11.13;8.13;;;9.20;93.00;;;;;;5059897;28;20114;-70
2022/05/05 01:58:19;;;;;;;11.20;8.95;;;9.30;93.00;;;;;;5053283;28;20124;-67
2022/05/05 02:00:45;;;;;;;11.70;8.27;;;9.20;92.70;;;;;;5054834;28;20047;-69
2022/05/05 02:03:14;;;;;;;11.00;7.40;;;9.10;92.60;;;;;;5055492;28;20035;-68
2022/05/05 02:05:44;;;;;;;11.05;8.23;;;9.00;92.50;;;;;;5059083;28;20036;-68
2022/05/05 02:08:12;;;;;;;10.40;8.35;;;9.00;92.10;;;;;;5053294;28;20021;-68
2022/05/05 02:10:38;;;;;;;12.40;9.25;;;9.00;91.60;;;;;;5054203;28;20111;-68
2022/05/05 02:13:05;;;;;;;12.75;10.00;;;9.10;91.40;;;;;;5053935;28;20332;-68
2022/05/05 02:15:34;;;;;;;10.30;8.55;;;9.10;91.20;;;;;;5056622;28;20118;-67
2022/05/05 02:18:11;;;;;;;11.55;8.88;;;9.20;91.30;;;;;;5053907;28;20025;-68
2022/05/05 02:20:40;;;;;;;10.00;8.30;;;9.20;91.50;;;;;;5053423;28;20095;-67
2022/05/05 02:23:08;;;;;;;11.75;8.30;;;9.20;91.80;;;;;;5057138;28;20023;-68
2022/05/05 02:25:34;;;;;;;10.68;8.50;;;9.20;91.60;;;;;;5054871;28;20313;-69
2022/05/05 02:28:01;;;;;;;12.32;9.73;;;9.20;91.80;;;;;;5057960;28;20064;-69
2022/05/05 02:30:28;;;;;;;12.65;8.40;;;9.20;91.50;;;;;;5056876;28;20340;-69
2022/05/05 02:32:55;;;;;;;9.27;7.50;;;9.20;91.80;;;;;;5061895;28;20103;-69
2022/05/05 02:35:22;;;;;;;10.93;8.52;;;9.00;91.70;;;;;;5058478;28;20025;-70
2022/05/05 02:40:32;;;;;;;11.77;7.30;;;8.90;91.40;;;;;;5037720;28;20048;-69
2022/05/05 02:43:00;;;;;;;10.68;7.78;;;8.70;91.10;;;;;;5065429;28;20050;-69
2022/05/05 02:45:26;;;;;;;12.50;10.07;;;8.70;90.60;;;;;;5058396;28;20482;-68
2022/05/05 02:47:53;;;;;;;10.88;8.63;;;8.70;91.30;;;;;;5054331;28;20029;-69
2022/05/05 02:50:19;;;;;;;11.05;8.93;;;8.60;90.30;;;;;;5054979;28;20104;-69
2022/05/05 02:52:46;;;;;;;14.20;10.88;;;8.60;90.70;;;;;;5058276;28;20021;-69
2022/05/05 02:55:13;;;;;;;14.38;10.52;;;8.50;90.00;;;;;;5042589;28;20421;-69
2022/05/05 02:57:39;;;;;;;15.35;10.30;;;8.50;89.90;;;;;;5058889;28;20063;-69
2022/05/05 03:00:10;;;;;;;10.98;9.25;;;8.40;90.00;;;;;;5055197;28;20056;-69
2022/05/05 03:02:37;;;;;;;12.88;9.90;;;8.30;89.10;;;;;;5054629;28;21436;-69
2022/05/05 03:05:03;;;;;;;11.75;8.88;;;8.20;88.70;;;;;;5057435;28;20079;-70
2022/05/05 03:07:29;;;;;;;14.30;9.65;;;8.20;88.70;;;;;;5056668;28;20043;-69
2022/05/05 03:09:56;;;;;;;10.27;7.97;;;8.20;87.40;;;;;;5044169;28;20033;-69
2022/05/05 03:12:21;;;;;;;12.30;9.70;;;8.30;87.40;;;;;;5035553;28;20331;-69
2022/05/05 03:14:47;;;;;;;14.35;10.13;;;8.30;86.40;;;;;;5056551;28;20037;-68
2022/05/05 03:17:14;;;;;;;15.15;11.85;;;8.40;86.60;;;;;;5052477;28;20021;-68
2022/05/05 03:19:41;;;;;;;12.00;10.23;;;8.40;86.10;;;;;;5055401;28;20021;-69
2022/05/05 03:22:07;;;;;;;13.02;9.98;;;8.50;85.70;;;;;;5054066;28;20498;-69
2022/05/05 03:24:33;;;;;;;14.40;11.15;;;8.50;85.90;;;;;;5059145;28;20025;-69
2022/05/05 03:27:04;;;;;;;14.85;10.95;;;8.60;85.40;;;;;;5054609;28;20036;-69
2022/05/05 03:29:32;;;;;;;13.48;9.45;;;8.70;85.80;;;;;;5066926;28;20535;-68
2022/05/05 03:31:58;;;;;;;11.85;9.45;;;8.60;86.50;;;;;;5053309;28;20039;-69
2022/05/05 03:34:24;;;;;;;13.50;11.10;;;8.60;85.90;;;;;;5056575;28;20393;-69
2022/05/05 03:36:50;;;;;;;14.88;11.23;;;8.60;86.60;;;;;;5058321;28;20071;-69
2022/05/05 03:39:15;;;;;;;12.85;10.80;;;8.70;86.60;;;;;;5053443;28;20032;-69
2022/05/05 03:41:41;;;;;;;15.23;11.57;;;8.70;85.80;;;;;;5055062;28;20029;-68
2022/05/05 03:44:07;;;;;;;17.52;11.40;;;8.70;86.70;;;;;;5057924;28;21644;-67
2022/05/05 03:46:34;;;;;;;14.40;10.77;;;8.70;86.70;;;;;;5053185;28;20056;-67
2022/05/05 03:49:03;;;;;;;15.57;11.25;;;8.70;86.60;;;;;;5052123;28;20144;-67
2022/05/05 03:51:28;;;;;;;12.45;10.15;;;8.80;86.30;;;;;;5034035;28;20029;-67
2022/05/05 03:53:57;;;;;;;17.73;12.57;;;8.90;85.60;;;;;;5051338;28;20526;-69
2022/05/05 03:56:23;;;;;;;17.35;13.32;;;8.90;86.10;;;;;;5054958;28;20029;-68
2022/05/05 03:58:49;;;;;;;16.42;11.88;;;8.90;86.60;;;;;;5061820;28;20028;-68
2022/05/05 04:01:14;;;;;;;14.27;11.85;;;8.90;86.70;;;;;;5052141;28;20029;-69
2022/05/05 04:03:43;;;;;;;12.60;10.45;;;9.00;86.70;;;;;;5051238;28;20037;-69
2022/05/05 04:06:10;;;;;;;13.30;11.13;;;9.10;86.10;;;;;;5037529;28;20036;-69
2022/05/05 04:08:37;;;;;;;15.23;12.45;;;9.20;88.10;;;;;;5060878;28;20495;-68
2022/05/05 04:11:05;;;;;;;16.08;11.90;;;9.20;88.20;;;;;;5040730;28;20052;-68
2022/05/05 04:13:31;;;;;;;16.33;12.40;;;9.10;88.20;;;;;;5060197;28;20377;-68
2022/05/05 04:15:57;;;;;;;13.20;10.82;;;9.20;88.10;;;;;;5052139;28;20068;-69
2022/05/05 04:18:22;;;;;;;13.27;10.25;;;9.20;88.00;;;;;;5045445;28;20383;-68
2022/05/05 04:20:48;;;;;;;16.05;11.25;;;9.10;88.40;;;;;;5052092;28;20103;-69
2022/05/05 04:23:17;;;;;;;15.77;11.55;;;9.10;88.10;;;;;;5050788;28;20028;-69
2022/05/05 04:25:44;;;;;;;11.23;8.93;;;9.20;88.60;;;;;;5054446;28;20028;-68
2022/05/05 04:28:15;;;;;;;14.77;11.25;;;9.20;88.80;;;;;;5053432;28;20100;-69
2022/05/05 04:30:41;;;;;;;11.60;9.50;;;9.10;89.30;;;;;;5054055;28;20036;-68
2022/05/05 04:33:08;;;;;;;16.65;11.90;;;9.10;89.60;;;;;;5052059;28;20326;-68
2022/05/05 04:35:36;;;;;;;16.92;10.80;;;9.10;89.60;;;;;;5059278;28;20031;-68
2022/05/05 04:38:03;;;;;;;14.32;10.70;;;9.20;89.70;;;;;;5065649;28;20444;-68
2022/05/05 04:40:29;;;;;;;13.95;10.82;;;9.20;89.80;;;;;;5035789;28;20109;-68
2022/05/05 04:42:55;;;;;;;13.23;10.63;;;9.30;89.90;;;;;;5053294;28;20074;-69
2022/05/05 04:45:21;;;;;;;13.77;10.88;;;9.40;89.70;;;;;;5054568;28;20025;-68
2022/05/05 04:47:47;;;;;;;11.85;9.77;;;9.50;90.20;;;;;;5060125;28;20189;-69
2022/05/05 04:50:14;;;;;;;11.88;9.25;;;9.50;90.70;;;;;;5035590;28;20894;-69
2022/05/05 04:52:40;;;;;;;13.57;9.95;;;9.60;91.30;;;;;;5047319;28;20046;-68
2022/05/05 04:55:06;;;;;;;11.43;9.68;;;9.70;91.90;;;;;;5053553;28;20055;-69
2022/05/05 04:57:35;;;;;;;10.50;8.98;;;9.80;91.90;;;;;;5063111;28;20173;-68
2022/05/05 05:00:01;;;;;;;10.70;8.38;;;9.90;92.10;;;;;;5064452;28;20334;-68
2022/05/05 05:02:26;;;;;;;12.15;8.43;;;10.00;92.40;;;;;;5051132;28;20021;-66
2022/05/05 05:04:52;;;;;;;11.50;8.77;;;10.10;92.70;;;;;;5052266;28;20048;-68
2022/05/05 05:07:18;;;;;;;12.60;9.73;;;10.30;93.30;;;;;;5055877;28;20032;-67
2022/05/05 05:09:44;;;;;;;10.93;8.50;;;10.30;93.90;;;;;;5057931;28;20356;-68
2022/05/05 05:12:10;;;;;;;10.10;7.80;;;10.40;94.30;;;;;;5050775;28;20025;-69
2022/05/05 05:14:35;;;;;;;11.70;8.30;;;10.40;94.50;;;;;;5040986;28;20028;-68
2022/05/05 05:17:04;;;;;;;13.35;10.50;;;10.50;95.00;;;;;;5043819;28;20047;-68
2022/05/05 05:19:29;;;;;;;10.73;8.18;;;10.60;95.50;;;;;;5043402;28;20025;-69
2022/05/05 05:21:55;;;;;;;11.40;8.02;;;10.60;95.70;;;;;;5053920;28;20032;-68
2022/05/05 05:24:21;;;;;;;11.90;8.23;;;10.70;95.30;;;;;;5053938;28;20025;-69
2022/05/05 05:26:46;;;;;;;11.63;9.25;;;10.80;96.00;;;;;;5054463;28;20033;-68
2022/05/05 05:29:15;;;;;;;9.88;7.68;;;11.00;96.10;;;;;;5055605;28;20055;-69
2022/05/05 05:31:41;;;;;;;9.57;7.22;;;11.10;96.20;;;;;;5053068;28;20036;-67
2022/05/05 05:34:06;;;;;;;9.30;6.53;;;11.40;96.30;;;;;;5053874;28;20079;-68
2022/05/05 05:36:32;;;;;;;9.93;7.32;;;11.70;97.10;;;;;;5052544;28;20036;-69
2022/05/05 05:38:58;;;;;;;10.60;7.57;;;11.80;98.00;;;;;;5047271;28;20032;-69
2022/05/05 05:41:23;;;;;;;12.20;8.02;;;11.90;98.00;;;;;;5054961;28;20021;-68
2022/05/05 05:43:49;;;;;;;10.13;6.75;;;12.00;98.00;;;;;;5053213;28;20147;-69
2022/05/05 05:46:15;;;;;;;8.20;6.57;;;12.30;98.00;;;;;;5035413;28;20039;-69
2022/05/05 05:48:40;;;;;;;10.50;8.32;;;12.60;98.00;;;;;;5054557;28;20025;-69
2022/05/05 05:51:07;;;;;;;14.57;10.25;;;12.70;98.00;;;;;;5055561;28;20032;-69
2022/05/05 05:53:32;;;;;;;11.98;9.32;;;12.60;98.00;;;;;;5052899;28;20144;-70
2022/05/05 05:55:58;;;;;;;16.15;10.60;;;12.50;98.00;;;;;;5055269;28;20113;-68
2022/05/05 05:58:24;;;;;;;13.93;9.57;;;12.40;98.00;;;;;;5054413;28;20040;-69
2022/05/05 06:00:50;;;;;;;11.60;8.65;;;12.30;98.00;;;;;;5053961;28;20056;-69
2022/05/05 06:06:03;;;;;;;11.00;8.52;;;12.20;98.00;;;;;;5053468;28;20429;-69
2022/05/05 06:08:29;;;;;;;13.65;8.93;;;12.10;98.00;;;;;;5051923;28;20037;-69
2022/05/05 06:10:54;;;;;;;13.55;10.45;;;12.00;98.00;;;;;;5045562;28;20094;-69
2022/05/05 06:13:20;;;;;;;13.77;9.55;;;12.10;98.00;;;;;;5064329;28;20288;-69
2022/05/05 06:15:45;;;;;;;15.00;10.82;;;12.20;98.00;;;;;;5057059;28;20477;-69
2022/05/05 06:18:11;;;;;;;14.52;10.73;;;12.20;98.00;;;;;;5054054;28;20022;-68
2022/05/05 06:20:37;;;;;;;15.55;11.65;;;12.00;98.00;;;;;;5052761;28;20029;-69
2022/05/05 06:23:03;;;;;;;17.33;12.55;;;12.00;98.00;;;;;;5051866;28;20163;-69
2022/05/05 06:25:28;;;;;;;15.45;11.77;;;11.90;98.00;;;;;;5053762;28;20469;-69
2022/05/05 06:27:57;;;;;;;14.55;11.02;;;11.90;98.00;;;;;;5034420;28;20029;-69
2022/05/05 06:30:23;;;;;;;15.52;11.77;;;11.90;98.00;;;;;;5048396;28;20021;-68
2022/05/05 06:32:48;;;;;;;14.55;12.00;;;12.00;98.00;;;;;;5038675;28;20047;-68
2022/05/05 06:35:14;;;;;;;14.25;10.55;;;12.00;98.00;;;;;;5058010;28;20437;-68
2022/05/05 06:37:40;;;;;;;14.43;10.55;;;12.00;98.00;;;;;;5058062;28;20032;-67
2022/05/05 06:40:06;;;;;;;13.20;10.10;;;12.10;98.00;;;;;;5040287;28;20153;-67
2022/05/05 06:42:35;;;;;;;12.20;9.05;;;12.10;98.00;;;;;;5030116;28;20029;-67
2022/05/05 06:45:01;;;;;;;12.77;8.98;;;12.20;98.00;;;;;;5032609;28;20029;-68
2022/05/05 06:47:26;;;;;;;12.18;9.35;;;12.20;98.00;;;;;;5026572;28;20037;-68
2022/05/05 06:49:52;;;;;;;13.15;9.82;;;12.40;98.00;;;;;;5030042;28;20457;-69
2022/05/05 06:52:17;;;;;;;14.13;10.20;;;12.40;98.00;;;;;;5054090;28;20071;-68
2022/05/05 06:54:43;;;;;;;12.43;9.93;;;12.30;97.90;;;;;;5040299;28;20039;-68
2022/05/05 06:57:09;;;;;;;15.48;11.18;;;12.30;98.00;;;;;;5037815;28;20430;-69
2022/05/05 06:59:35;;;;;;;14.07;9.35;;;12.20;98.00;;;;;;5022590;28;20045;-69
2022/05/05 07:02:01;;;;;;;13.98;10.02;;;12.30;98.00;;;;;;5020648;28;20079;-69
2022/05/05 07:07:17;;;;;;;13.88;9.77;;;12.50;98.00;;;;;;5029679;28;20121;-68
2022/05/05 07:12:29;;;;;;;11.50;7.95;;;12.90;98.00;;;;;;5013947;28;20040;-68
2022/05/05 07:14:56;;;;;;;11.90;9.60;;;13.00;97.30;;;;;;5017827;28;20029;-68
2022/05/05 07:17:26;;;;;;;12.68;8.88;;;13.00;97.30;;;;;;5016309;28;20041;-68
2022/05/05 07:19:53;;;;;;;13.88;8.55;;;12.90;97.20;;;;;;5018946;28;20276;-69
2022/05/05 07:22:19;;;;;;;11.95;8.30;;;12.90;97.40;;;;;;5017227;28;20037;-68
2022/05/05 07:24:46;;;;;;;14.35;11.18;;;12.90;97.60;;;;;;5015570;28;20065;-68
2022/05/05 07:27:15;;;;;;;15.43;11.32;;;12.90;97.70;;;;;;5025343;28;20025;-68
2022/05/05 07:29:41;;;;;;;13.43;9.30;;;12.90;97.50;;;;;;5029544;28;20033;-69
2022/05/05 07:32:08;;;;;;;24.67;14.52;;;12.80;97.70;;;;;;5034337;28;20167;-68
2022/05/05 07:34:34;;;;;;;18.08;13.23;;;12.80;97.60;;;;;;5046243;28;20038;-70
2022/05/05 07:37:00;;;;;;;17.42;12.38;;;12.60;97.80;;;;;;5034761;28;20021;-68
2022/05/05 07:39:26;;;;;;;15.93;12.25;;;12.50;98.00;;;;;;5020060;28;20021;-68
2022/05/05 07:41:52;;;;;;;17.42;12.27;;;12.20;97.70;;;;;;5032629;28;20381;-70
2022/05/05 07:44:17;;;;;;;21.33;13.90;;;12.00;97.90;;;;;;5036563;28;20029;-69
2022/05/05 07:46:43;;;;;;;24.10;17.08;;;11.70;97.50;;;;;;5034793;28;20056;-69
2022/05/05 07:49:09;;;;;;;16.60;13.50;;;11.70;97.30;;;;;;5037386;28;20025;-69
2022/05/05 07:51:35;;;;;;;20.67;14.98;;;11.70;97.50;;;;;;5036045;28;20037;-69
2022/05/05 07:56:46;;;;;;;19.55;14.90;;;11.60;97.30;;;;;;5037378;28;20032;-69
2022/05/05 07:59:12;;;;;;;31.13;20.85;;;11.70;97.60;;;;;;5041168;28;20064;-69
2022/05/05 08:01:38;;;;;;;19.73;15.07;;;11.70;97.20;;;;;;5054941;28;20418;-69
2022/05/05 08:04:04;;;;;;;18.10;13.25;;;11.70;97.30;;;;;;5055630;28;20216;-69
2022/05/05 08:06:32;;;;;;;25.15;16.73;;;11.90;97.30;;;;;;5056837;28;20053;-69
2022/05/05 08:08:58;;;;;;;16.33;13.55;;;11.90;97.60;;;;;;5056117;28;20025;-69
2022/05/05 08:11:23;;;;;;;18.38;13.63;;;12.00;97.50;;;;;;5049387;28;20036;-68
2022/05/05 08:13:49;;;;;;;15.20;11.98;;;12.00;98.00;;;;;;5029625;28;20044;-69
2022/05/05 08:16:16;;;;;;;21.10;16.73;;;11.90;98.00;;;;;;5034103;28;20037;-67
2022/05/05 08:18:42;;;;;;;21.70;14.90;;;11.80;97.50;;;;;;5029786;28;20029;-68
2022/05/05 08:21:10;;;;;;;17.27;13.55;;;11.90;97.50;;;;;;5016989;28;20061;-68
2022/05/05 08:23:36;;;;;;;18.08;13.63;;;11.80;97.90;;;;;;5028671;28;20068;-68
2022/05/05 08:28:46;;;;;;;18.30;14.75;;;11.60;97.80;;;;;;5044533;28;20040;-68
2022/05/05 08:31:12;;;;;;;20.98;15.98;;;11.50;97.40;;;;;;5031163;28;20032;-68
2022/05/05 08:33:38;;;;;;;33.33;22.73;;;11.40;97.60;;;;;;5031867;28;20053;-68
2022/05/05 08:36:05;;;;;;;28.38;22.40;;;11.40;97.20;;;;;;5043039;28;20036;-68
2022/05/05 08:38:31;;;;;;;25.15;18.40;;;11.30;97.20;;;;;;5028252;28;20394;-68
2022/05/05 08:40:57;;;;;;;20.65;15.63;;;11.20;97.00;;;;;;5028518;28;20022;-69
2022/05/05 08:43:23;;;;;;;19.15;14.05;;;11.20;96.70;;;;;;5030589;28;20025;-69
2022/05/05 08:45:50;;;;;;;16.08;13.45;;;11.20;96.80;;;;;;5019228;28;20149;-68
2022/05/05 08:48:17;;;;;;;19.83;16.15;;;11.30;96.30;;;;;;5035000;28;20025;-69
2022/05/05 08:50:47;;;;;;;20.80;16.27;;;11.20;95.70;;;;;;5032121;28;20108;-69
2022/05/05 08:53:14;;;;;;;17.73;14.82;;;11.20;95.10;;;;;;5034067;28;20406;-70
2022/05/05 08:55:41;;;;;;;18.90;16.20;;;11.20;94.40;;;;;;5020587;28;20044;-69
2022/05/05 08:58:06;;;;;;;20.70;16.95;;;11.30;94.60;;;;;;5050401;28;20021;-69
2022/05/05 09:00:32;;;;;;;22.38;16.92;;;11.20;94.70;;;;;;5035802;28;20064;-69
2022/05/05 09:03:04;;;;;;;33.72;22.17;;;11.10;94.60;;;;;;5043992;28;20485;-70
2022/05/05 09:05:42;;;;;;;24.13;19.27;;;11.00;93.90;;;;;;5035485;28;20025;-70
2022/05/05 09:08:10;;;;;;;18.85;15.70;;;10.90;93.60;;;;;;5028492;28;20029;-69
2022/05/05 09:10:43;;;;;;;20.75;16.45;;;10.90;93.40;;;;;;5032367;28;20521;-69
2022/05/05 09:13:09;;;;;;;18.70;14.43;;;10.90;94.00;;;;;;5028730;28;20056;-71
2022/05/05 09:15:36;;;;;;;19.15;16.15;;;10.90;93.40;;;;;;5028005;28;20116;-70
2022/05/05 09:18:19;;;;;;;22.20;17.95;;;11.00;93.30;;;;;;5038968;28;20033;-70
2022/05/05 09:20:48;;;;;;;23.90;19.10;;;11.00;93.00;;;;;;5032768;28;20033;-70
2022/05/05 09:23:33;;;;;;;30.00;22.52;;;11.10;93.90;;;;;;5016625;28;20036;-70
2022/05/05 09:26:01;;;;;;;29.58;23.73;;;11.10;93.50;;;;;;5034153;28;20037;-70
2022/05/05 09:28:30;;;;;;;28.13;22.40;;;11.10;93.40;;;;;;5030896;28;20040;-70
2022/05/05 09:31:08;;;;;;;26.00;21.95;;;11.00;95.00;;;;;;5028908;28;20041;-71
2022/05/05 09:33:34;;;;;;;31.10;24.10;;;10.90;95.90;;;;;;5031770;28;20040;-71
2022/05/05 09:36:14;;;;;;;32.45;23.60;;;10.90;95.10;;;;;;5043288;28;20033;-70
2022/05/05 09:39:00;;;;;;;31.15;25.17;;;11.00;94.50;;;;;;5011879;28;20039;-70
2022/05/05 09:41:33;;;;;;;32.35;24.23;;;11.20;93.80;;;;;;5026230;28;20834;-71
2022/05/05 09:44:11;;;;;;;32.42;24.40;;;11.30;94.00;;;;;;5030233;28;20083;-71
2022/05/05 09:46:36;;;;;;;30.45;24.38;;;11.40;95.40;;;;;;5027802;28;20433;-72
2022/05/05 09:49:12;;;;;;;30.92;23.33;;;11.30;95.50;;;;;;5033320;28;20028;-71
2022/05/05 09:57:39;;;;;;;31.73;23.05;;;11.40;94.70;;;;;;5037462;28;20068;-71
2022/05/05 09:57:42;;;;;;;30.67;23.77;;;11.70;96.90;;;;;;5045562;28;20067;-71
2022/05/05 10:05:51;;;;;;;26.15;21.23;;;12.80;98.00;;;;;;5031276;28;20067;-70
2022/05/05 10:08:29;;;;;;;25.80;21.02;;;13.00;98.00;;;;;;5030020;28;20024;-70
2022/05/05 10:10:55;;;;;;;25.27;21.05;;;13.20;97.40;;;;;;5028360;28;20036;-70
2022/05/05 10:13:23;;;;;;;27.95;23.20;;;13.30;98.00;;;;;;5033206;28;20025;-69
2022/05/05 10:15:49;;;;;;;26.75;21.98;;;13.40;98.00;;;;;;5028096;28;20054;-69
2022/05/05 10:18:17;;;;;;;29.77;24.05;;;13.60;98.00;;;;;;5016661;28;20314;-71
2022/05/05 10:20:43;;;;;;;26.10;20.40;;;13.60;98.00;;;;;;5034298;28;20028;-71
2022/05/05 10:23:19;;;;;;;30.05;22.52;;;13.60;98.00;;;;;;5030224;28;20342;-70
2022/05/05 10:25:52;;;;;;;25.52;19.30;;;13.90;97.90;;;;;;5032740;28;20112;-70
2022/05/05 10:28:36;;;;;;;25.80;20.25;;;14.40;98.00;;;;;;5032166;28;20116;-70
2022/05/05 10:31:02;;;;;;;25.92;21.13;;;14.90;97.90;;;;;;5029708;28;20184;-70
2022/05/05 10:33:59;;;;;;;24.95;19.58;;;14.90;96.70;;;;;;5033209;28;20103;-69
2022/05/05 10:36:26;;;;;;;21.10;17.65;;;15.00;96.70;;;;;;5033551;28;20112;-71
2022/05/05 10:38:52;;;;;;;23.83;19.60;;;15.20;96.60;;;;;;5042221;28;20029;-70
2022/05/05 10:41:39;;;;;;;21.08;17.42;;;15.50;95.40;;;;;;5043463;28;20036;-70
2022/05/05 10:44:21;;;;;;;24.27;17.98;;;15.60;95.30;;;;;;5053719;28;20031;-70
2022/05/05 10:46:57;;;;;;;18.52;15.75;;;15.90;95.00;;;;;;5054777;28;20363;-70
2022/05/05 10:49:37;;;;;;;25.83;18.95;;;16.40;92.90;;;;;;5057047;28;20130;-69
2022/05/05 10:52:29;;;;;;;24.02;19.30;;;16.60;91.80;;;;;;5056656;28;20036;-69
2022/05/05 10:54:55;;;;;;;25.13;19.33;;;16.00;94.70;;;;;;5029407;28;20380;-70
2022/05/05 10:57:27;;;;;;;21.85;17.50;;;16.40;94.00;;;;;;5056440;28;20365;-70
2022/05/05 11:00:18;;;;;;;22.17;15.65;;;16.80;93.00;;;;;;5038127;28;20072;-70
2022/05/05 11:03:01;;;;;;;22.33;16.50;;;16.90;91.40;;;;;;5048593;28;20033;-70
2022/05/05 11:05:35;;;;;;;22.50;18.10;;;16.90;91.20;;;;;;5054914;28;20087;-69
2022/05/05 11:08:10;;;;;;;20.02;17.27;;;16.40;91.50;;;;;;5057099;28;20036;-69
2022/05/05 11:13:37;;;;;;;27.33;20.77;;;16.10;92.30;;;;;;5037777;28;20024;-70
2022/05/05 11:22:09;;;;;;;21.75;17.55;;;16.50;94.00;;;;;;5056822;28;20444;-69
2022/05/05 11:24:36;;;;;;;21.00;15.50;;;16.90;91.40;;;;;;5056072;28;20025;-69
2022/05/05 11:27:02;;;;;;;20.08;16.70;;;17.10;89.70;;;;;;5055663;28;20319;-69
2022/05/05 11:29:31;;;;;;;20.20;16.80;;;17.30;90.70;;;;;;5054774;28;20457;-70
2022/05/05 11:31:58;;;;;;;22.10;17.42;;;17.30;90.80;;;;;;5056373;28;20024;-70
2022/05/05 11:34:32;;;;;;;21.85;17.45;;;17.50;89.70;;;;;;5056392;28;20091;-69
2022/05/05 11:37:02;;;;;;;20.60;16.20;;;17.60;89.30;;;;;;5055818;28;20295;-70
2022/05/05 11:39:32;;;;;;;17.10;14.55;;;17.10;90.00;;;;;;5055905;28;20090;-69
2022/05/05 11:42:11;;;;;;;18.30;14.43;;;17.20;89.80;;;;;;5057503;28;20026;-69
2022/05/05 11:44:41;;;;;;;18.35;14.85;;;17.50;88.10;;;;;;5054835;28;20053;-69
2022/05/05 11:47:14;;;;;;;18.67;14.18;;;17.30;88.40;;;;;;5065034;28;20029;-68
2022/05/05 11:49:46;;;;;;;17.23;14.85;;;17.20;89.40;;;;;;5039603;28;20306;-69
2022/05/05 11:52:25;;;;;;;19.65;14.70;;;17.10;89.20;;;;;;5054918;28;20033;-69
2022/05/05 11:54:56;;;;;;;18.85;15.82;;;17.10;89.40;;;;;;5057067;28;20025;-69
2022/05/05 11:57:34;;;;;;;20.80;15.90;;;16.70;90.00;;;;;;5055921;28;20094;-69
2022/05/05 12:02:44;;;;;;;17.05;13.82;;;16.90;88.60;;;;;;5055095;28;20039;-69
2022/05/05 12:05:10;;;;;;;16.13;12.15;;;17.00;88.50;;;;;;5056392;28;20357;-69
2022/05/05 12:07:36;;;;;;;16.42;13.60;;;17.10;87.20;;;;;;5055244;28;20037;-69
2022/05/05 12:10:15;;;;;;;19.27;15.82;;;17.10;87.60;;;;;;5055873;28;20051;-69
2022/05/05 12:12:52;;;;;;;18.05;15.57;;;16.90;87.60;;;;;;5050973;28;20056;-69
2022/05/05 12:15:21;;;;;;;19.55;15.55;;;16.80;89.40;;;;;;5045522;28;20021;-69
2022/05/05 12:17:57;;;;;;;18.70;15.43;;;16.90;88.00;;;;;;5054310;28;20029;-69
2022/05/05 12:20:24;;;;;;;17.55;14.23;;;16.90;89.60;;;;;;5055717;28;20287;-68
2022/05/05 12:22:54;;;;;;;18.25;15.02;;;17.30;87.90;;;;;;5054374;28;20029;-69
2022/05/05 12:25:23;;;;;;;19.17;14.40;;;17.60;87.70;;;;;;5056332;28;20056;-69
2022/05/05 12:27:58;;;;;;;15.73;13.88;;;17.60;86.90;;;;;;5055028;28;20036;-69
2022/05/05 12:30:41;;;;;;;16.15;12.90;;;17.80;87.80;;;;;;5056097;28;20025;-67
2022/05/05 12:33:11;;;;;;;17.85;12.82;;;18.00;87.10;;;;;;5056234;28;20029;-68
2022/05/05 12:35:39;;;;;;;16.83;12.88;;;18.20;85.60;;;;;;5055309;28;20353;-68
2022/05/05 12:38:11;;;;;;;15.18;12.02;;;18.30;85.20;;;;;;5055231;28;20100;-70
2022/05/05 12:40:46;;;;;;;15.38;13.38;;;18.60;85.50;;;;;;5053932;28;20021;-68
2022/05/05 12:43:18;;;;;;;17.00;14.02;;;18.60;82.80;;;;;;5055559;28;20120;-70
2022/05/05 12:45:47;;;;;;;15.40;13.43;;;18.30;84.40;;;;;;5052870;28;20385;-70
2022/05/05 12:48:19;;;;;;;17.83;14.30;;;18.20;85.30;;;;;;5056130;28;20470;-69
2022/05/05 12:50:49;;;;;;;14.35;11.93;;;18.20;86.20;;;;;;5054392;28;20384;-70
2022/05/05 13:01:40;;;;;;;15.60;11.65;;;19.30;79.20;;;;;;5053559;28;20040;-69
2022/05/05 13:04:09;;;;;;;14.85;12.60;;;19.20;81.10;;;;;;5056665;28;20029;-69
2022/05/05 13:06:38;;;;;;;14.20;11.85;;;18.70;82.00;;;;;;5054420;28;20120;-69
2022/05/05 13:09:08;;;;;;;14.32;12.15;;;18.90;83.70;;;;;;5054943;28;20025;-69
2022/05/05 13:11:38;;;;;;;16.27;12.48;;;18.70;82.90;;;;;;5055477;28;20067;-68
2022/05/05 13:14:04;;;;;;;16.90;13.13;;;18.30;83.50;;;;;;5053560;28;20105;-69
2022/05/05 13:16:31;;;;;;;15.77;13.60;;;17.90;84.40;;;;;;5048666;28;20040;-68
2022/05/05 13:18:58;;;;;;;15.40;13.18;;;17.70;85.20;;;;;;5055194;28;20421;-68
2022/05/05 13:21:24;;;;;;;16.92;13.18;;;17.40;86.00;;;;;;5051394;28;20025;-67
2022/05/05 13:23:51;;;;;;;17.85;14.68;;;17.50;86.10;;;;;;5054680;28;20017;-67
2022/05/05 13:26:17;;;;;;;17.90;14.43;;;17.10;85.60;;;;;;5051262;28;20028;-68
2022/05/05 13:28:42;;;;;;;16.50;13.25;;;17.10;86.30;;;;;;5053961;28;20032;-68
2022/05/05 13:31:08;;;;;;;16.98;12.90;;;17.20;86.80;;;;;;5053033;28;20037;-66
2022/05/05 13:33:35;;;;;;;17.13;12.60;;;17.00;87.10;;;;;;5051596;28;20025;-67